Time;durP1;ratioP1;P1;durP2;ratioP2;P2;SDS_P1;SDS_P2;PMS_P1;PMS_P2;Temp;Humidity;BMP_temperature;BMP_pressure;BME280_temperature;BME280_humidity;BME280_pressure;Samples;Min_cycle;Max_cycle;Signal;HPM_P1;HPM_P2
2023/08/17 00:02:16;;;;;;;;;10.00;9.75;;;;;22.56;58.73;101136.94;5093549;27;64733;-71
2023/08/17 00:04:42;;;;;;;;;11.50;9.25;;;;;22.52;58.45;101138.97;5099016;27;46006;-71
2023/08/17 00:07:07;;;;;;;;;10.75;9.75;;;;;22.51;58.81;101137.25;5089765;27;45329;-71
2023/08/17 00:09:32;;;;;;;;;14.00;10.50;;;;;22.49;58.60;101144.50;5098906;27;45610;-71
2023/08/17 00:11:58;;;;;;;;;11.75;11.75;;;;;22.49;59.01;101135.66;5098174;27;57075;-71
2023/08/17 00:14:23;;;;;;;;;11.50;10.50;;;;;22.46;59.44;101136.72;5098027;27;45290;-71
2023/08/17 00:16:50;;;;;;;;;12.00;12.00;;;;;22.44;59.15;101138.63;5092969;27;45527;-71
2023/08/17 00:19:15;;;;;;;;;8.75;7.75;;;;;22.40;59.34;101141.63;5100865;27;45417;-71
2023/08/17 00:21:40;;;;;;;;;14.00;12.00;;;;;22.35;59.61;101133.97;5086575;27;45642;-71
2023/08/17 00:24:06;;;;;;;;;10.00;9.25;;;;;22.34;60.08;101129.56;5104120;27;46214;-71
2023/08/17 00:26:31;;;;;;;;;12.50;9.00;;;;;22.34;60.43;101129.56;5089609;27;45233;-71
2023/08/17 00:28:56;;;;;;;;;9.50;7.00;;;;;22.33;60.38;101128.72;5097952;27;62827;-70
2023/08/17 00:31:22;;;;;;;;;13.00;11.25;;;;;22.32;59.91;101136.84;5102117;27;71742;-71
2023/08/17 00:33:47;;;;;;;;;13.75;11.25;;;;;22.30;60.40;101120.94;5102909;27;46944;-71
2023/08/17 00:36:12;;;;;;;;;14.00;13.00;;;;;22.29;60.94;101127.25;5096390;27;59005;-70
2023/08/17 00:38:38;;;;;;;;;13.00;11.00;;;;;22.29;60.10;101132.59;5104806;27;45534;-69
2023/08/17 00:41:03;;;;;;;;;11.75;11.00;;;;;22.26;60.84;101124.75;5097249;27;64710;-70
2023/08/17 00:43:28;;;;;;;;;11.50;9.50;;;;;22.25;60.63;101130.19;5097450;27;62972;-70
2023/08/17 00:45:54;;;;;;;;;14.00;9.75;;;;;22.17;60.29;101131.59;5094736;27;71809;-70
2023/08/17 00:48:19;;;;;;;;;10.25;10.25;;;;;22.17;60.77;101130.75;5094194;27;45367;-71
2023/08/17 00:50:47;;;;;;;;;15.00;13.50;;;;;22.14;61.10;101136.28;5095469;27;45441;-70
2023/08/17 00:53:15;;;;;;;;;18.50;14.25;;;;;22.11;61.31;101137.31;5101150;27;47263;-71
2023/08/17 00:55:41;;;;;;;;;21.50;14.25;;;;;22.10;61.21;101132.97;5074711;27;45278;-71
2023/08/17 00:58:06;;;;;;;;;16.00;14.50;;;;;22.07;60.84;101135.84;5094227;27;66281;-72
2023/08/17 01:00:32;;;;;;;;;17.00;13.50;;;;;22.01;61.16;101128.28;5095510;27;45568;-72
2023/08/17 01:02:57;;;;;;;;;12.25;11.00;;;;;21.97;61.25;101127.63;5096357;27;45447;-72
2023/08/17 01:05:23;;;;;;;;;11.00;11.00;;;;;21.97;60.94;101135.63;5090778;27;67516;-72
2023/08/17 01:07:48;;;;;;;;;29.25;21.75;;;;;21.95;61.46;101134.84;5096209;27;45353;-70
2023/08/17 01:10:14;;;;;;;;;12.50;12.25;;;;;21.90;61.51;101128.16;5091627;27;45351;-71
2023/08/17 01:13:15;;;;;;;;;11.50;11.25;;;;;21.89;61.35;101134.44;5096681;27;48218;-71
2023/08/17 01:15:46;;;;;;;;;11.75;10.75;;;;;21.87;61.71;101136.34;5079527;27;46261;-71
2023/08/17 01:18:19;;;;;;;;;14.50;11.00;;;;;21.82;62.11;101130.50;5089902;27;45216;-71
2023/08/17 01:20:45;;;;;;;;;11.75;10.75;;;;;21.80;61.99;101127.94;5086592;27;45248;-71
2023/08/17 01:23:11;;;;;;;;;15.75;11.75;;;;;21.77;62.07;101133.47;5087294;27;61859;-70
2023/08/17 01:25:36;;;;;;;;;11.50;9.75;;;;;21.75;62.12;101130.91;5094766;27;45387;-72
2023/08/17 01:28:03;;;;;;;;;12.75;10.00;;;;;21.69;62.02;101119.81;5082706;27;45312;-71
2023/08/17 01:30:30;;;;;;;;;17.25;11.00;;;;;21.67;61.92;101127.03;5078414;27;45649;-70
2023/08/17 01:33:09;;;;;;;;;10.25;9.25;;;;;21.65;62.09;101134.28;5085645;27;45211;-71
2023/08/17 01:35:40;;;;;;;;;11.50;11.25;;;;;21.58;62.38;101131.19;5086125;27;45800;-72
2023/08/17 01:38:09;;;;;;;;;16.25;14.00;;;;;21.56;63.28;101128.63;5097041;27;45235;-71
2023/08/17 01:40:35;;;;;;;;;13.25;11.50;;;;;21.52;62.74;101129.78;5089667;27;45300;-71
2023/08/17 01:43:02;;;;;;;;;16.75;13.00;;;;;21.46;63.16;101122.22;5092478;27;46254;-71
2023/08/17 01:45:27;;;;;;;;;11.50;8.75;;;;;21.42;63.75;101128.66;5092266;27;45406;-70
2023/08/17 01:47:53;;;;;;;;;14.25;11.75;;;;;21.38;63.65;101124.50;5086309;27;45473;-71
2023/08/17 01:50:18;;;;;;;;;12.75;8.50;;;;;21.35;63.36;101124.69;5100030;27;45420;-71
2023/08/17 01:52:44;;;;;;;;;13.50;10.50;;;;;21.29;63.92;101122.47;5102871;27;45939;-71
2023/08/17 01:55:09;;;;;;;;;13.50;12.50;;;;;21.28;63.80;101123.41;5094960;27;45417;-71
2023/08/17 01:57:36;;;;;;;;;16.25;14.50;;;;;21.25;63.49;101129.78;5096671;27;45235;-71
2023/08/17 02:00:04;;;;;;;;;15.75;14.25;;;;;21.19;64.01;101128.34;5089379;27;45823;-71
2023/08/17 02:02:30;;;;;;;;;16.25;13.75;;;;;21.17;64.40;101132.09;5091974;27;46579;-71
2023/08/17 02:04:55;;;;;;;;;13.00;13.00;;;;;21.15;64.19;101131.34;5087286;27;45375;-72
2023/08/17 02:07:20;;;;;;;;;14.75;11.25;;;;;21.11;64.46;101130.69;5094060;27;65049;-71
2023/08/17 02:09:46;;;;;;;;;12.00;12.00;;;;;21.08;64.82;101127.38;5086503;27;64244;-72
2023/08/17 02:12:11;;;;;;;;;19.50;14.75;;;;;21.04;65.06;101124.06;5090317;27;49244;-71
2023/08/17 02:14:36;;;;;;;;;13.25;12.25;;;;;20.98;64.82;101127.97;5087811;27;47925;-71
2023/08/17 02:17:02;;;;;;;;;15.25;14.25;;;;;20.95;64.73;101129.97;5095774;27;45402;-71
2023/08/17 02:19:27;;;;;;;;;13.50;13.00;;;;;20.93;65.85;101145.16;5089563;27;65923;-72
2023/08/17 02:21:52;;;;;;;;;15.25;12.25;;;;;20.90;65.71;101137.41;5082528;27;50890;-70
2023/08/17 02:24:18;;;;;;;;;15.00;12.75;;;;;20.89;65.60;101139.19;5083977;27;60378;-70
2023/08/17 02:26:43;;;;;;;;;12.25;12.25;;;;;20.85;65.91;101138.53;5079930;27;57395;-70
2023/08/17 02:29:08;;;;;;;;;14.50;13.50;;;;;20.85;66.34;101150.97;5086654;27;46676;-70
2023/08/17 02:31:34;;;;;;;;;13.25;12.25;;;;;20.83;67.60;101150.22;5087388;27;65053;-70
2023/08/17 02:34:04;;;;;;;;;15.75;14.25;;;;;20.83;65.74;101153.72;5091988;27;73005;-71
2023/08/17 02:36:30;;;;;;;;;13.25;10.75;;;;;20.83;66.54;101156.41;5105024;27;45420;-71
2023/08/17 02:38:55;;;;;;;;;14.75;14.00;;;;;20.85;66.42;101151.81;5089562;27;45428;-71
2023/08/17 02:41:21;;;;;;;;;14.50;14.00;;;;;20.86;66.57;101158.03;5086313;27;74087;-71
2023/08/17 02:43:46;;;;;;;;;14.25;14.25;;;;;20.87;66.28;101162.38;5088092;27;45448;-71
2023/08/17 02:46:11;;;;;;;;;12.25;10.25;;;;;20.92;66.41;101148.78;5092461;27;62110;-71
2023/08/17 02:48:37;;;;;;;;;16.50;12.75;;;;;20.93;66.33;101145.16;5094518;27;69585;-72
2023/08/17 02:51:02;;;;;;;;;13.25;11.00;;;;;20.95;65.83;101144.13;5093003;27;45973;-71
2023/08/17 02:53:27;;;;;;;;;16.75;13.75;;;;;20.97;65.85;101152.00;5090897;27;62378;-71
2023/08/17 02:55:53;;;;;;;;;16.25;14.00;;;;;20.95;66.12;101151.25;5087546;27;45465;-71
2023/08/17 02:58:19;;;;;;;;;12.75;12.75;;;;;20.93;66.24;101142.50;5090578;27;45665;-72
2023/08/17 03:00:44;;;;;;;;;14.25;12.25;;;;;20.99;66.83;101156.28;5092769;27;45529;-72
2023/08/17 03:03:09;;;;;;;;;19.75;16.00;;;;;21.01;65.96;101156.19;5068792;27;73208;-71
2023/08/17 03:05:35;;;;;;;;;16.00;15.25;;;;;20.99;66.38;101153.59;5086726;27;52478;-72
2023/08/17 03:08:00;;;;;;;;;16.00;12.75;;;;;21.01;67.00;101150.84;5085453;27;65059;-72
2023/08/17 03:10:25;;;;;;;;;19.50;15.75;;;;;21.02;66.13;101150.75;5092426;27;75554;-71
2023/08/17 03:12:51;;;;;;;;;19.50;16.00;;;;;21.00;65.59;101147.34;5093838;27;45441;-71
2023/08/17 03:15:16;;;;;;;;;17.75;15.25;;;;;21.00;66.32;101151.78;5094761;27;45221;-72
2023/08/17 03:17:41;;;;;;;;;17.50;16.00;;;;;20.97;66.37;101144.88;5090148;27;54999;-71
2023/08/17 03:20:07;;;;;;;;;16.75;14.25;;;;;20.95;66.04;101153.94;5094248;27;68369;-70
2023/08/17 03:22:33;;;;;;;;;15.25;13.25;;;;;20.88;66.55;101150.78;5093110;27;45563;-70
2023/08/17 03:24:59;;;;;;;;;20.25;18.25;;;;;20.84;66.52;101149.25;5090304;27;45416;-71
2023/08/17 03:27:24;;;;;;;;;18.75;16.25;;;;;20.79;66.32;101133.63;5068643;27;45578;-70
2023/08/17 03:29:50;;;;;;;;;15.25;14.00;;;;;20.72;67.39;101134.97;5093269;27;47281;-70
2023/08/17 03:32:16;;;;;;;;;16.75;16.00;;;;;20.70;66.71;101133.31;5086106;27;45377;-70
2023/08/17 03:34:41;;;;;;;;;19.00;17.50;;;;;20.67;66.58;101140.56;5086303;27;56338;-70
2023/08/17 03:37:07;;;;;;;;;16.75;13.75;;;;;20.62;66.87;101136.47;5094258;27;45500;-70
2023/08/17 03:39:32;;;;;;;;;18.00;16.00;;;;;20.56;67.14;101131.53;5097183;27;46740;-70
2023/08/17 03:41:57;;;;;;;;;18.50;14.75;;;;;20.54;67.50;101144.91;5094799;27;59011;-71
2023/08/17 03:44:23;;;;;;;;;20.00;15.25;;;;;20.49;68.08;101139.88;5092645;27;45491;-70
2023/08/17 03:46:48;;;;;;;;;19.00;15.75;;;;;20.47;68.00;101136.47;5087506;27;46745;-70
2023/08/17 03:49:14;;;;;;;;;15.25;14.75;;;;;20.44;67.48;101144.63;5086982;27;75582;-70
2023/08/17 03:51:40;;;;;;;;;18.50;17.50;;;;;20.37;67.89;101143.28;5065033;27;45879;-70
2023/08/17 03:54:05;;;;;;;;;22.00;18.50;;;;;20.35;67.65;101139.03;5084655;27;45422;-71
2023/08/17 03:56:30;;;;;;;;;22.00;18.50;;;;;20.32;68.41;101140.06;5086163;27;45445;-71
2023/08/17 03:58:56;;;;;;;;;25.25;20.50;;;;;20.29;68.68;101140.25;5080907;27;45558;-71
2023/08/17 04:01:21;;;;;;;;;20.25;16.50;;;;;20.23;68.70;101136.16;5093740;27;53670;-71
2023/08/17 04:03:47;;;;;;;;;18.25;16.25;;;;;20.21;68.94;101138.06;5097561;27;45403;-71
2023/08/17 04:06:12;;;;;;;;;21.25;18.25;;;;;20.17;69.15;101133.91;5093276;27;69692;-71
2023/08/17 04:08:38;;;;;;;;;16.50;16.00;;;;;20.14;69.26;101126.09;5090225;27;46528;-71
2023/08/17 04:11:04;;;;;;;;;22.50;19.50;;;;;20.11;69.38;101126.28;5088983;27;45322;-71
2023/08/17 04:13:29;;;;;;;;;23.25;20.00;;;;;20.10;69.47;101132.56;5089885;27;45496;-71
2023/08/17 04:15:55;;;;;;;;;24.25;20.75;;;;;20.02;69.60;101114.41;5091899;27;45584;-70
2023/08/17 04:18:20;;;;;;;;;26.00;18.50;;;;;20.03;69.69;101131.22;5087763;27;71747;-70
2023/08/17 04:20:45;;;;;;;;;24.50;18.50;;;;;20.01;69.54;101125.13;5087492;27;68091;-70
2023/08/17 04:23:11;;;;;;;;;20.75;18.25;;;;;20.00;70.23;101131.41;5093883;27;59833;-71
2023/08/17 04:25:36;;;;;;;;;20.25;19.25;;;;;19.98;69.95;101128.00;5089450;27;45430;-71
2023/08/17 04:28:02;;;;;;;;;22.50;19.25;;;;;19.96;70.56;101135.19;5096294;27;52541;-71
2023/08/17 04:30:27;;;;;;;;;21.00;19.00;;;;;19.91;69.80;101130.16;5090664;27;45303;-72
2023/08/17 04:32:52;;;;;;;;;21.50;18.75;;;;;19.91;70.04;101125.69;5088036;27;45491;-71
2023/08/17 04:35:19;;;;;;;;;18.75;16.50;;;;;19.90;70.42;101128.44;5090473;27;46141;-71
2023/08/17 04:37:44;;;;;;;;;21.75;20.00;;;;;19.92;70.19;101126.56;5088104;27;46262;-70
2023/08/17 04:40:10;;;;;;;;;26.00;20.25;;;;;19.90;70.32;101131.97;5094561;27;63290;-70
2023/08/17 04:42:36;;;;;;;;;24.50;20.25;;;;;19.86;70.19;101122.44;5098077;27;45260;-71
2023/08/17 04:45:01;;;;;;;;;23.00;18.75;;;;;19.90;70.40;101123.13;5101440;27;45993;-72
2023/08/17 04:47:27;;;;;;;;;25.50;20.25;;;;;19.90;70.71;101131.97;5094599;27;45656;-71
2023/08/17 04:49:53;;;;;;;;;24.00;21.75;;;;;19.91;70.44;101127.50;5099441;27;45593;-72
2023/08/17 04:52:18;;;;;;;;;26.50;20.75;;;;;19.91;70.61;101130.16;5080272;27;45323;-71
2023/08/17 04:54:43;;;;;;;;;24.50;21.50;;;;;19.94;70.89;101131.75;5085485;27;50379;-71
2023/08/17 04:57:09;;;;;;;;;27.00;26.50;;;;;19.94;70.89;101126.44;5085621;27;45953;-70
2023/08/17 04:59:34;;;;;;;;;25.50;22.50;;;;;20.00;70.87;101132.25;5090627;27;61045;-71
2023/08/17 05:01:59;;;;;;;;;25.00;21.25;;;;;20.02;70.46;101134.81;5074343;27;45432;-70
2023/08/17 05:04:25;;;;;;;;;29.25;24.25;;;;;20.02;70.44;101135.66;5088915;27;45374;-71
2023/08/17 05:06:50;;;;;;;;;50.00;37.50;;;;;20.04;70.35;101143.53;5092804;27;67959;-72
2023/08/17 05:09:15;;;;;;;;;23.25;19.75;;;;;20.06;70.70;101133.66;5086503;27;45455;-71
2023/08/17 05:11:41;;;;;;;;;31.75;26.25;;;;;20.09;70.70;101142.31;5099627;27;55329;-71
2023/08/17 05:14:06;;;;;;;;;29.00;25.50;;;;;20.14;70.34;101139.38;5091608;27;63369;-70
2023/08/17 05:16:31;;;;;;;;;31.50;25.25;;;;;20.14;70.19;101131.41;5096359;27;48141;-71
2023/08/17 05:18:59;;;;;;;;;27.50;23.75;;;;;20.18;70.19;101127.63;5097304;27;63853;-70
2023/08/17 05:21:24;;;;;;;;;29.00;23.75;;;;;20.21;69.84;101135.41;5095428;27;45413;-70
2023/08/17 05:23:50;;;;;;;;;28.00;24.50;;;;;20.21;70.24;101137.22;5097158;27;45310;-70
2023/08/17 05:26:15;;;;;;;;;29.50;22.00;;;;;20.21;69.97;101137.22;5092462;27;45770;-70
2023/08/17 05:28:41;;;;;;;;;26.50;24.00;;;;;20.20;70.71;101132.84;5093623;27;45291;-71
2023/08/17 05:31:07;;;;;;;;;34.25;25.25;;;;;20.15;69.80;101118.97;5094385;27;45306;-71
2023/08/17 05:33:32;;;;;;;;;30.75;24.00;;;;;20.17;70.17;101128.56;5089311;27;45434;-70
2023/08/17 05:35:57;;;;;;;;;37.75;31.00;;;;;20.17;70.19;101122.38;5089746;27;52924;-71
2023/08/17 05:38:23;;;;;;;;;34.50;28.25;;;;;20.17;70.27;101125.91;5090890;27;53668;-71
2023/08/17 05:40:56;;;;;;;;;28.50;23.75;;;;;20.17;70.47;101115.28;5100417;27;47169;-72
2023/08/17 05:43:22;;;;;;;;;26.00;23.25;;;;;20.18;70.39;101106.34;5091196;27;45546;-71
2023/08/17 05:45:47;;;;;;;;;30.25;26.00;;;;;20.20;70.49;101116.88;5086857;27;46191;-71
2023/08/17 05:48:13;;;;;;;;;27.25;24.25;;;;;20.17;70.70;101099.34;5098992;27;73297;-69
2023/08/17 05:50:41;;;;;;;;;26.50;23.25;;;;;20.18;70.16;101110.81;5087164;27;45370;-73
2023/08/17 05:53:07;;;;;;;;;26.25;23.00;;;;;20.20;70.46;101111.56;5088471;27;45432;-71
2023/08/17 05:55:33;;;;;;;;;33.50;25.00;;;;;20.18;70.15;101116.97;5070343;27;50028;-78
2023/08/17 05:57:58;;;;;;;;;27.25;23.00;;;;;20.17;70.69;101111.75;5092307;27;45451;-72
2023/08/17 06:00:24;;;;;;;;;24.25;23.50;;;;;20.15;70.77;101121.63;5090996;27;56026;-69
2023/08/17 06:02:51;;;;;;;;;31.75;27.75;;;;;20.12;70.91;101116.53;5089958;27;45503;-71
2023/08/17 06:05:19;;;;;;;;;36.50;28.50;;;;;20.06;70.91;101112.41;5091873;27;46254;-71
2023/08/17 06:07:44;;;;;;;;;31.00;26.00;;;;;20.01;71.09;101104.75;5086968;27;45449;-71
2023/08/17 06:10:10;;;;;;;;;34.25;26.25;;;;;20.01;70.79;101103.88;5083446;27;69332;-69
2023/08/17 06:12:35;;;;;;;;;34.00;30.00;;;;;20.01;70.88;101110.06;5084953;27;45548;-69
2023/08/17 06:15:05;;;;;;;;;28.50;26.50;;;;;20.01;71.80;101110.06;5085667;27;51443;-69
2023/08/17 06:17:30;;;;;;;;;31.00;24.00;;;;;20.02;71.71;101110.91;5086786;27;45248;-70
2023/08/17 06:19:56;;;;;;;;;22.25;21.25;;;;;20.05;71.19;101110.72;5093775;27;45982;-73
2023/08/17 06:22:21;;;;;;;;;29.75;25.00;;;;;20.10;70.78;101112.16;5087527;27;45451;-69
2023/08/17 06:24:46;;;;;;;;;29.75;23.50;;;;;20.14;70.74;101098.69;5093273;27;71893;-69
2023/08/17 06:27:15;;;;;;;;;30.25;27.75;;;;;20.18;71.23;101109.00;5089287;27;45439;-71
2023/08/17 06:29:41;;;;;;;;;28.75;26.00;;;;;20.19;71.23;101116.03;5090281;27;45330;-69
2023/08/17 06:32:06;;;;;;;;;27.75;25.75;;;;;20.20;71.09;101115.13;5089244;27;45458;-70
2023/08/17 06:34:31;;;;;;;;;33.50;26.00;;;;;20.24;71.49;101110.47;5091664;27;45490;-69
2023/08/17 06:36:59;;;;;;;;;29.25;25.25;;;;;20.28;70.95;101111.97;5089642;27;45307;-70
2023/08/17 06:39:24;;;;;;;;;34.00;30.50;;;;;20.30;71.20;101107.41;5089586;27;45509;-70
2023/08/17 06:41:49;;;;;;;;;35.25;28.75;;;;;20.32;70.93;101115.28;5081368;27;63247;-72
2023/08/17 06:44:15;;;;;;;;;36.00;28.50;;;;;20.35;70.96;101115.97;5085435;27;45609;-71
2023/08/17 06:46:40;;;;;;;;;31.75;29.25;;;;;20.38;71.15;101110.47;5083187;27;45465;-80
2023/08/17 06:49:06;;;;;;;;;31.00;25.00;;;;;20.45;70.84;101108.25;5084012;27;45530;-79
2023/08/17 06:51:32;;;;;;;;;30.50;24.50;;;;;20.46;70.91;101102.84;5087758;27;47590;-77
2023/08/17 06:53:58;;;;;;;;;28.75;25.75;;;;;20.51;70.94;101107.03;5083695;27;46674;-77
2023/08/17 06:56:23;;;;;;;;;35.00;28.25;;;;;20.55;70.37;101095.25;5086889;27;49711;-74
2023/08/17 06:58:50;;;;;;;;;30.25;27.00;;;;;20.56;70.55;101088.97;5098091;27;47552;-77
2023/08/17 07:01:16;;;;;;;;;32.75;26.50;;;;;20.62;70.47;101093.94;5086032;27;60650;-72
2023/08/17 07:03:44;;;;;;;;;36.25;26.25;;;;;20.67;70.87;101089.19;5090755;27;46297;-69
2023/08/17 07:06:10;;;;;;;;;26.50;22.50;;;;;20.72;70.30;101079.09;5091858;27;45382;-73
2023/08/17 07:08:35;;;;;;;;;38.25;30.75;;;;;20.80;70.80;101086.56;5076343;27;45534;-72
2023/08/17 07:11:01;;;;;;;;;31.50;26.50;;;;;20.86;70.22;101081.72;5091907;27;58704;-73
2023/08/17 07:13:26;;;;;;;;;36.00;29.50;;;;;20.92;70.70;101087.59;5088034;27;45917;-73
2023/08/17 07:15:51;;;;;;;;;35.75;29.25;;;;;21.00;70.14;101091.47;5075978;27;69172;-73
2023/08/17 07:18:17;;;;;;;;;33.75;29.75;;;;;21.10;70.14;101088.19;5098162;27;53270;-73
2023/08/17 07:20:42;;;;;;;;;40.50;29.75;;;;;21.18;70.10;101092.06;5094066;27;55464;-79
2023/08/17 07:23:07;;;;;;;;;41.25;33.50;;;;;21.28;70.02;101092.28;5080852;27;60739;-78
2023/08/17 07:25:33;;;;;;;;;45.75;32.75;;;;;21.34;69.41;101091.06;5089048;27;45374;-82
2023/08/17 07:27:58;;;;;;;;;31.50;27.50;;;;;21.40;69.73;101088.81;5100765;27;45317;-74
2023/08/17 07:30:24;;;;;;;;;47.25;35.00;;;;;21.48;69.17;101087.47;5081361;27;74953;-78
2023/08/17 07:32:49;;;;;;;;;45.50;34.25;;;;;21.52;68.80;101083.69;5089837;27;45610;-74
2023/08/17 07:35:14;;;;;;;;;43.50;34.25;;;;;21.58;68.50;101089.44;5091616;27;45296;-80
2023/08/17 07:37:40;;;;;;;;;35.25;28.00;;;;;21.60;68.78;101090.19;5090197;27;45374;-80
2023/08/17 07:40:07;;;;;;;;;30.00;24.75;;;;;21.64;68.45;101087.28;5089077;27;45561;-81
2023/08/17 07:42:32;;;;;;;;;34.25;28.50;;;;;21.66;68.30;101094.25;5090688;27;45318;-78
2023/08/17 07:44:58;;;;;;;;;41.25;31.75;;;;;21.68;68.97;101088.81;5095834;27;45340;-75
2023/08/17 07:47:23;;;;;;;;;30.50;28.00;;;;;21.76;68.87;101089.13;5098558;27;53877;-74
2023/08/17 07:49:48;;;;;;;;;37.25;30.50;;;;;21.85;68.51;101093.84;5091445;27;50440;-73
2023/08/17 07:52:14;;;;;;;;;37.75;29.50;;;;;21.93;68.10;101101.28;5087226;27;63552;-73
2023/08/17 07:54:39;;;;;;;;;55.50;42.50;;;;;22.02;68.26;101099.81;5088265;27;45473;-73
2023/08/17 07:57:04;;;;;;;;;46.75;34.00;;;;;22.08;68.22;101107.38;5095563;27;46199;-73
2023/08/17 07:59:30;;;;;;;;;43.50;33.00;;;;;22.15;67.61;101103.31;5095620;27;45637;-74
2023/08/17 08:01:55;;;;;;;;;34.75;30.50;;;;;22.22;67.17;101114.41;5099589;27;46145;-74
2023/08/17 08:04:21;;;;;;;;;43.75;31.75;;;;;22.25;67.44;101108.88;5075927;27;45303;-73
2023/08/17 08:06:46;;;;;;;;;37.00;29.00;;;;;22.29;66.88;101108.59;5102817;27;67959;-73
2023/08/17 08:09:12;;;;;;;;;38.50;30.50;;;;;22.32;67.03;101104.84;5083109;27;45294;-73
2023/08/17 08:11:37;;;;;;;;;31.75;28.75;;;;;22.36;67.04;101104.53;5096287;27;46154;-73
2023/08/17 08:14:03;;;;;;;;;36.75;29.75;;;;;22.42;67.19;101102.38;5097663;27;45365;-73
2023/08/17 08:16:30;;;;;;;;;35.50;30.00;;;;;22.50;66.53;101106.19;5096836;27;46449;-74
2023/08/17 08:18:55;;;;;;;;;38.25;33.00;;;;;22.57;66.36;101106.59;5097462;27;45409;-74
2023/08/17 08:21:21;;;;;;;;;42.50;33.25;;;;;22.63;66.51;101097.28;5096672;27;45449;-73
2023/08/17 08:23:46;;;;;;;;;45.00;32.75;;;;;22.71;66.13;101102.94;5090066;27;63210;-73
2023/08/17 08:26:11;;;;;;;;;45.75;35.50;;;;;22.83;66.13;101106.53;5095281;27;45294;-74
2023/08/17 08:28:37;;;;;;;;;42.75;32.50;;;;;22.91;66.12;101107.69;5083703;27;68429;-74
2023/08/17 08:31:05;;;;;;;;;37.50;31.75;;;;;23.00;65.52;101111.50;5103268;27;51818;-74
2023/08/17 08:33:30;;;;;;;;;43.50;30.50;;;;;23.10;65.55;101104.53;5092052;27;45295;-74
2023/08/17 08:35:59;;;;;;;;;36.25;32.00;;;;;23.15;65.27;101096.19;5096277;27;53779;-74
2023/08/17 08:38:24;;;;;;;;;34.25;31.00;;;;;23.26;64.83;101106.91;5102594;27;45570;-74
2023/08/17 08:40:50;;;;;;;;;58.00;43.75;;;;;23.31;64.86;101094.06;5079367;27;47524;-74
2023/08/17 08:43:16;;;;;;;;;32.25;27.50;;;;;23.40;64.46;101100.53;5092774;27;53708;-74
2023/08/17 08:45:44;;;;;;;;;28.75;26.00;;;;;23.49;64.33;101110.53;5083778;27;45444;-74
2023/08/17 08:48:09;;;;;;;;;32.75;26.75;;;;;23.58;64.05;101108.97;5095048;27;45448;-74
2023/08/17 08:50:36;;;;;;;;;41.50;31.50;;;;;23.69;63.90;101108.16;5092243;27;45987;-74
2023/08/17 08:53:04;;;;;;;;;33.50;30.00;;;;;23.73;63.55;101101.63;5093028;27;45498;-74
2023/08/17 08:55:34;;;;;;;;;39.00;29.00;;;;;23.80;62.91;101097.53;5096257;27;45353;-73
2023/08/17 08:57:59;;;;;;;;;31.25;27.75;;;;;23.84;63.21;101101.66;5095918;27;45238;-74
2023/08/17 09:00:25;;;;;;;;;30.75;27.25;;;;;23.93;62.71;101101.94;5095021;27;45568;-74
2023/08/17 09:02:51;;;;;;;;;33.75;28.00;;;;;23.98;62.52;101105.13;5090010;27;45691;-73
2023/08/17 09:05:17;;;;;;;;;29.50;27.50;;;;;24.07;62.41;101109.72;5101724;27;48225;-74
2023/08/17 09:07:43;;;;;;;;;30.50;25.75;;;;;24.13;62.31;101098.53;5098360;27;45401;-73
2023/08/17 09:10:11;;;;;;;;;31.00;25.25;;;;;24.21;62.25;101100.63;5090345;27;45486;-74
2023/08/17 09:12:37;;;;;;;;;35.25;29.25;;;;;24.30;61.94;101102.56;5090055;27;45395;-74
2023/08/17 09:15:03;;;;;;;;;35.50;25.50;;;;;24.34;62.16;101093.31;5101252;27;45344;-73
2023/08/17 09:17:28;;;;;;;;;27.75;23.00;;;;;24.43;61.84;101097.97;5082019;27;45346;-73
2023/08/17 09:19:54;;;;;;;;;31.25;29.00;;;;;24.50;61.83;101090.28;5091704;27;46426;-73
2023/08/17 09:22:24;;;;;;;;;35.25;25.00;;;;;24.57;61.85;101090.66;5096047;27;45450;-74
2023/08/17 09:24:49;;;;;;;;;32.00;23.75;;;;;24.61;61.17;101084.09;5082950;27;45333;-75
2023/08/17 09:27:14;;;;;;;;;27.75;26.75;;;;;24.69;60.42;101087.00;5098674;27;71923;-74
2023/08/17 09:29:43;;;;;;;;;30.25;25.00;;;;;24.75;60.39;101088.31;5091586;27;45369;-74
2023/08/17 09:32:10;;;;;;;;;26.50;23.75;;;;;24.81;60.82;101087.84;5096221;27;45284;-74
2023/08/17 09:34:35;;;;;;;;;27.00;23.00;;;;;24.86;60.34;101082.09;5100339;27;45320;-74
2023/08/17 09:37:04;;;;;;;;;22.75;20.75;;;;;24.88;59.54;101078.31;5100881;27;45531;-74
2023/08/17 09:39:30;;;;;;;;;23.00;20.50;;;;;24.92;59.40;101087.78;5091171;27;45523;-74
2023/08/17 09:41:55;;;;;;;;;26.50;18.25;;;;;24.96;59.32;101083.88;5103893;27;45333;-75
2023/08/17 09:44:21;;;;;;;;;23.75;21.25;;;;;25.00;59.00;101082.66;5098714;27;45425;-74
2023/08/17 09:46:47;;;;;;;;;19.75;19.00;;;;;25.08;59.14;101081.19;5096825;27;45436;-75
2023/08/17 09:49:13;;;;;;;;;27.00;21.50;;;;;25.11;59.09;101081.78;5094378;27;46255;-74
2023/08/17 09:51:38;;;;;;;;;21.25;20.00;;;;;25.15;58.82;101068.97;5086522;27;45445;-74
2023/08/17 09:54:04;;;;;;;;;29.00;20.25;;;;;25.18;58.49;101066.91;5093057;27;45435;-75
2023/08/17 09:56:29;;;;;;;;;28.75;26.50;;;;;25.23;57.62;101071.00;5091095;27;45265;-73
2023/08/17 09:58:55;;;;;;;;;23.00;20.00;;;;;25.27;57.46;101073.34;5107305;27;57829;-72
2023/08/17 10:01:21;;;;;;;;;24.25;18.75;;;;;25.31;57.24;101068.56;5111066;27;44771;-72
2023/08/17 10:03:49;;;;;;;;;21.00;17.50;;;;;25.37;56.90;101065.38;5109404;27;45240;-73
2023/08/17 10:06:18;;;;;;;;;21.75;18.25;;;;;25.42;57.48;101062.31;5092034;27;45327;-73
2023/08/17 10:08:47;;;;;;;;;25.50;19.75;;;;;25.47;57.09;101066.28;5107141;27;46317;-72
2023/08/17 10:11:15;;;;;;;;;24.50;21.75;;;;;25.52;57.28;101055.19;5099851;27;45352;-75
2023/08/17 10:13:50;;;;;;;;;22.50;20.25;;;;;25.53;57.53;101055.06;5093782;27;45403;-74
2023/08/17 10:16:53;;;;;;;;;19.50;19.25;;;;;25.64;57.08;101047.91;5080388;27;45342;-75
2023/08/17 10:19:38;;;;;;;;;21.25;18.00;;;;;25.71;57.18;101049.09;5053579;28;45465;-74
2023/08/17 10:22:16;;;;;;;;;24.75;21.00;;;;;25.75;56.76;101051.38;5098091;27;45491;-75
2023/08/17 10:24:42;;;;;;;;;17.75;17.25;;;;;25.83;56.07;101045.34;5087133;27;45448;-73
2023/08/17 10:27:09;;;;;;;;;20.50;18.75;;;;;25.87;56.29;101043.25;5073098;27;59773;-74
2023/08/17 10:29:36;;;;;;;;;22.25;18.25;;;;;25.91;55.95;101042.00;5088599;27;46261;-74
2023/08/17 10:32:02;;;;;;;;;19.25;18.00;;;;;25.94;55.75;101037.25;5089003;27;45257;-74
2023/08/17 10:34:28;;;;;;;;;17.50;17.25;;;;;25.99;55.66;101028.78;5084502;27;45333;-73
2023/08/17 10:36:57;;;;;;;;;25.75;23.25;;;;;26.05;56.29;101032.78;5084567;27;62841;-73
2023/08/17 10:39:29;;;;;;;;;22.00;17.50;;;;;26.10;55.53;101022.47;5089738;27;45986;-74
2023/08/17 10:41:56;;;;;;;;;39.75;32.00;;;;;26.18;54.89;101025.34;5088324;27;45475;-74
2023/08/17 10:44:37;;;;;;;;;29.00;24.50;;;;;26.21;55.38;101027.75;5076122;27;45373;-74
2023/08/17 10:47:18;;;;;;;;;20.75;19.75;;;;;26.19;54.90;101021.69;5098311;27;45494;-74
2023/08/17 10:49:44;;;;;;;;;41.50;32.50;;;;;26.24;54.56;101026.63;5088182;27;45264;-74
2023/08/17 10:52:09;;;;;;;;;31.00;24.00;;;;;26.25;52.84;101017.63;5099595;27;45300;-73
2023/08/17 10:54:42;;;;;;;;;27.75;23.25;;;;;26.29;53.62;101024.38;5090816;27;64811;-74
2023/08/17 10:57:29;;;;;;;;;13.75;11.25;;;;;26.36;52.04;101022.00;5097700;27;45471;-74
2023/08/17 11:00:15;;;;;;;;;22.75;20.50;;;;;26.40;51.62;101023.44;5093264;27;46376;-74
2023/08/17 11:02:43;;;;;;;;;16.25;14.75;;;;;26.46;52.46;101012.16;5084473;27;45271;-74
2023/08/17 11:05:09;;;;;;;;;20.50;15.75;;;;;26.48;52.87;101021.75;5079365;27;45319;-74
2023/08/17 11:07:41;;;;;;;;;16.25;14.00;;;;;26.52;51.87;101022.31;5097092;27;45530;-74